Wetterdaten: Woche 26.10.15 - 01.11.15 (KW44)
Datum Zeit Temp. A. Feuchte A. Luftdruck Regen Wind Richtung Taupunkt Windchill Windben
26.10.2015 00:00 11,6 C 83 % 1026,0 hPa 0,0 l/m 0,0 km/h N 8,8 C 11,6 C 0,0 km/h
26.10.2015 01:00 11,3 C 83 % 1025,9 hPa 0,0 l/m 0,2 km/h N 8,5 C 11,3 C 1,2 km/h
26.10.2015 02:00 11,3 C 83 % 1025,8 hPa 0,0 l/m 0,1 km/h N 8,5 C 11,3 C 1,2 km/h
26.10.2015 03:00 11,0 C 83 % 1025,8 hPa 0,0 l/m 0,0 km/h N 8,2 C 11,0 C 0,0 km/h
26.10.2015 04:00 10,4 C 83 % 1025,6 hPa 0,0 l/m 0,0 km/h N 7,7 C 10,4 C 0,0 km/h
26.10.2015 05:00 9,6 C 83 % 1025,6 hPa 0,0 l/m 0,0 km/h N 6,9 C 9,6 C 0,0 km/h
26.10.2015 06:00 8,8 C 83 % 1025,5 hPa 0,0 l/m 0,0 km/h N 6,1 C 8,8 C 0,0 km/h
26.10.2015 07:00 8,5 C 83 % 1025,6 hPa 0,0 l/m 0,0 km/h N 5,8 C 8,5 C 0,0 km/h
26.10.2015 08:00 9,5 C 82 % 1025,6 hPa 0,0 l/m 0,0 km/h N 6,6 C 9,5 C 0,0 km/h
26.10.2015 09:00 10,6 C 82 % 1025,4 hPa 0,0 l/m 0,2 km/h N 7,7 C 10,6 C 2,4 km/h
26.10.2015 10:00 12,8 C 80 % 1024,8 hPa 0,0 l/m 0,6 km/h N 9,5 C 12,8 C 4,8 km/h
26.10.2015 11:00 14,3 C 75 % 1024,3 hPa 0,0 l/m 1,2 km/h N 9,9 C 14,3 C 7,6 km/h
26.10.2015 12:00 14,7 C 72 % 1023,7 hPa 0,0 l/m 0,6 km/h N 9,6 C 14,7 C 6,4 km/h
26.10.2015 13:00 14,7 C 71 % 1023,0 hPa 0,0 l/m 0,5 km/h N 9,4 C 14,7 C 6,0 km/h
26.10.2015 14:00 14,5 C 71 % 1022,7 hPa 0,0 l/m 0,5 km/h N 9,4 C 14,5 C 5,2 km/h
26.10.2015 15:00 13,5 C 74 % 1022,7 hPa 0,0 l/m 0,8 km/h N 9,0 C 13,5 C 6,4 km/h
26.10.2015 16:00 12,4 C 78 % 1022,5 hPa 0,0 l/m 0,0 km/h N 8,7 C 12,4 C 2,0 km/h
26.10.2015 17:00 11,6 C 80 % 1022,7 hPa 0,0 l/m 0,2 km/h N 8,3 C 11,6 C 3,2 km/h
26.10.2015 18:00 11,2 C 81 % 1022,9 hPa 0,0 l/m 0,1 km/h N 8,1 C 11,2 C 2,8 km/h
26.10.2015 19:00 10,9 C 82 % 1022,8 hPa 0,0 l/m 0,0 km/h N 8,0 C 10,9 C 1,2 km/h
26.10.2015 20:00 10,7 C 83 % 1022,5 hPa 0,0 l/m 0,1 km/h N 7,9 C 10,7 C 0,8 km/h
26.10.2015 21:00 10,5 C 83 % 1022,4 hPa 0,0 l/m 0,0 km/h N 7,8 C 10,5 C 0,0 km/h
26.10.2015 22:00 10,6 C 83 % 1022,2 hPa 0,0 l/m 0,4 km/h N 7,8 C 10,6 C 3,6 km/h
26.10.2015 23:00 10,6 C 83 % 1021,8 hPa 0,0 l/m 0,3 km/h N 7,8 C 10,6 C 5,2 km/h
27.10.2015 00:00 10,4 C 83 % 1021,8 hPa 0,0 l/m 0,3 km/h N 7,6 C 10,4 C 5,2 km/h
27.10.2015 01:00 10,3 C 83 % 1021,5 hPa 0,0 l/m 0,2 km/h N 7,5 C 10,3 C 3,6 km/h
27.10.2015 02:00 10,3 C 83 % 1021,3 hPa 0,0 l/m 0,7 km/h N 7,5 C 10,3 C 6,4 km/h
27.10.2015 03:00 9,9 C 83 % 1021,2 hPa 0,0 l/m 0,9 km/h N 7,1 C 9,9 C 8,0 km/h
27.10.2015 04:00 9,4 C 83 % 1021,0 hPa 0,0 l/m 0,8 km/h N 6,7 C 9,4 C 6,8 km/h
27.10.2015 05:00 9,4 C 83 % 1021,1 hPa 0,0 l/m 2,3 km/h N 6,7 C 9,4 C 8,9 km/h
27.10.2015 06:00 9,3 C 83 % 1021,1 hPa 0,0 l/m 2,9 km/h N 6,5 C 9,3 C 10,1 km/h
27.10.2015 07:00 9,2 C 83 % 1021,5 hPa 0,0 l/m 5,3 km/h N 6,5 C 9,2 C 6,8 km/h
27.10.2015 08:00 9,5 C 83 % 1021,9 hPa 0,0 l/m 4,3 km/h N 6,8 C 9,5 C 14,9 km/h
27.10.2015 09:00 10,5 C 83 % 1022,1 hPa 0,0 l/m 4,4 km/h N 7,6 C 10,5 C 15,7 km/h
27.10.2015 10:00 12,0 C 78 % 1022,0 hPa 0,0 l/m 5,7 km/h N 8,2 C 11,9 C 17,3 km/h
27.10.2015 11:00 13,8 C 71 % 1021,5 hPa 0,0 l/m 7,5 km/h N 8,5 C 13,0 C 20,1 km/h
27.10.2015 12:00 14,1 C 69 % 1021,0 hPa 0,0 l/m 7,6 km/h N 8,5 C 13,4 C 22,5 km/h
27.10.2015 13:00 13,9 C 69 % 1020,6 hPa 0,0 l/m 7,9 km/h N 8,3 C 13,0 C 21,7 km/h
27.10.2015 14:00 13,5 C 70 % 1020,3 hPa 0,0 l/m 6,7 km/h N 8,0 C 13,1 C 21,3 km/h
27.10.2015 15:00 13,0 C 70 % 1020,0 hPa 0,0 l/m 5,3 km/h N 7,6 C 13,0 C 18,9 km/h
27.10.2015 16:00 12,6 C 70 % 1019,7 hPa 0,0 l/m 4,4 km/h N 7,3 C 12,6 C 12,5 km/h
27.10.2015 17:00 11,7 C 73 % 1019,4 hPa 0,0 l/m 2,5 km/h N 7,1 C 11,7 C 12,5 km/h
27.10.2015 18:00 10,8 C 76 % 1019,4 hPa 0,0 l/m 1,0 km/h N 6,7 C 10,8 C 8,9 km/h
27.10.2015 19:00 10,3 C 78 % 1019,1 hPa 0,0 l/m 0,7 km/h N 6,5 C 10,3 C 7,6 km/h
27.10.2015 20:00 10,0 C 80 % 1019,1 hPa 0,0 l/m 1,2 km/h N 6,6 C 10,0 C 9,6 km/h
27.10.2015 21:00 9,0 C 82 % 1019,1 hPa 0,0 l/m 1,0 km/h N 6,0 C 9,0 C 6,8 km/h
27.10.2015 22:00 8,8 C 83 % 1019,0 hPa 0,0 l/m 0,8 km/h N 6,0 C 8,8 C 7,2 km/h
27.10.2015 23:00 8,4 C 83 % 1018,8 hPa 0,0 l/m 0,6 km/h N 5,7 C 8,4 C 5,6 km/h
28.10.2015 00:00 8,1 C 83 % 1018,7 hPa 0,0 l/m 0,8 km/h N 5,4 C 8,1 C 8,4 km/h
28.10.2015 01:00 7,9 C 83 % 1018,5 hPa 0,0 l/m 0,5 km/h N 5,2 C 7,9 C 6,8 km/h
28.10.2015 02:00 8,1 C 83 % 1018,1 hPa 0,0 l/m 1,2 km/h N 5,4 C 8,1 C 8,9 km/h
28.10.2015 03:00 8,3 C 83 % 1017,8 hPa 0,0 l/m 1,2 km/h N 5,5 C 8,3 C 10,5 km/h
28.10.2015 04:00 8,2 C 82 % 1017,7 hPa 0,0 l/m 1,1 km/h N 5,4 C 8,2 C 8,0 km/h
28.10.2015 05:00 8,3 C 82 % 1017,2 hPa 0,0 l/m 2,8 km/h N 5,4 C 8,3 C 11,7 km/h
28.10.2015 06:00 8,3 C 82 % 1017,3 hPa 0,0 l/m 3,0 km/h N 5,4 C 8,3 C 11,3 km/h
28.10.2015 07:00 8,3 C 82 % 1017,3 hPa 0,0 l/m 3,2 km/h N 5,4 C 8,3 C 3,2 km/h
28.10.2015 08:00 9,1 C 83 % 1017,2 hPa 0,0 l/m 4,6 km/h N 6,4 C 9,1 C 12,1 km/h
28.10.2015 09:00 10,0 C 83 % 1017,0 hPa 0,0 l/m 5,5 km/h N 7,2 C 10,0 C 17,3 km/h
28.10.2015 10:00 10,7 C 81 % 1016,8 hPa 0,0 l/m 5,8 km/h N 7,6 C 10,7 C 19,7 km/h
28.10.2015 11:00 10,9 C 80 % 1016,5 hPa 0,0 l/m 6,4 km/h N 7,5 C 10,8 C 17,3 km/h
28.10.2015 12:00 11,5 C 78 % 1016,1 hPa 0,0 l/m 6,9 km/h N 7,9 C 11,2 C 20,1 km/h
28.10.2015 13:00 11,6 C 79 % 1015,6 hPa 0,0 l/m 5,0 km/h N 7,9 C 11,6 C 18,1 km/h
28.10.2015 14:00 11,1 C 79 % 1015,2 hPa 0,0 l/m 4,3 km/h N 7,7 C 11,1 C 17,3 km/h
28.10.2015 15:00 10,5 C 81 % 1015,0 hPa 0,0 l/m 3,7 km/h N 7,4 C 10,5 C 16,1 km/h
28.10.2015 16:00 9,8 C 83 % 1014,9 hPa 0,0 l/m 2,9 km/h N 6,9 C 9,8 C 13,7 km/h
28.10.2015 17:00 9,4 C 83 % 1014,9 hPa 0,0 l/m 2,7 km/h N 6,6 C 9,4 C 14,1 km/h
28.10.2015 18:00 9,1 C 83 % 1014,8 hPa 0,0 l/m 2,9 km/h N 6,3 C 9,1 C 12,1 km/h
28.10.2015 19:00 9,0 C 83 % 1014,6 hPa 0,0 l/m 2,1 km/h N 6,3 C 9,0 C 11,7 km/h
28.10.2015 20:00 8,9 C 83 % 1014,6 hPa 0,0 l/m 2,5 km/h N 6,2 C 8,9 C 10,1 km/h
28.10.2015 21:00 8,9 C 83 % 1014,6 hPa 0,0 l/m 2,4 km/h N 6,2 C 8,9 C 11,3 km/h
28.10.2015 22:00 8,8 C 83 % 1014,5 hPa 0,0 l/m 2,5 km/h N 6,0 C 8,8 C 12,5 km/h
28.10.2015 23:00 8,7 C 83 % 1014,3 hPa 0,0 l/m 2,9 km/h N 6,0 C 8,7 C 12,9 km/h
29.10.2015 00:00 8,6 C 83 % 1013,9 hPa 0,0 l/m 1,8 km/h N 5,8 C 8,6 C 8,0 km/h
29.10.2015 01:00 8,4 C 83 % 1013,8 hPa 0,0 l/m 1,5 km/h N 5,7 C 8,4 C 11,7 km/h
29.10.2015 02:00 8,4 C 83 % 1013,7 hPa 0,0 l/m 1,0 km/h N 5,7 C 8,4 C 8,4 km/h
29.10.2015 03:00 8,4 C 83 % 1013,8 hPa 0,0 l/m 2,3 km/h N 5,7 C 8,4 C 10,9 km/h
29.10.2015 04:00 8,4 C 83 % 1014,2 hPa 0,0 l/m 1,3 km/h N 5,6 C 8,4 C 8,4 km/h
29.10.2015 05:00 8,4 C 83 % 1014,6 hPa 0,0 l/m 0,8 km/h N 5,6 C 8,4 C 6,8 km/h
29.10.2015 06:00 8,4 C 82 % 1015,0 hPa 0,0 l/m 0,2 km/h N 5,5 C 8,4 C 4,4 km/h
29.10.2015 07:00 8,4 C 82 % 1015,9 hPa 0,0 l/m 0,0 km/h N 5,5 C 8,4 C 0,0 km/h
29.10.2015 08:00 8,6 C 82 % 1017,0 hPa 0,0 l/m 0,0 km/h N 5,7 C 8,6 C 0,0 km/h
29.10.2015 09:00 9,0 C 82 % 1017,8 hPa 0,0 l/m 0,1 km/h N 6,1 C 9,0 C 1,2 km/h
29.10.2015 10:00 9,3 C 82 % 1018,6 hPa 0,0 l/m 0,1 km/h N 6,4 C 9,3 C 2,0 km/h
29.10.2015 11:00 10,4 C 83 % 1018,9 hPa 0,0 l/m 0,5 km/h N 7,7 C 10,4 C 4,0 km/h
29.10.2015 12:00 10,6 C 83 % 1019,2 hPa 0,0 l/m 0,2 km/h N 7,9 C 10,6 C 3,6 km/h
29.10.2015 13:00 10,9 C 83 % 1019,4 hPa 0,0 l/m 0,3 km/h N 8,2 C 10,9 C 4,4 km/h
29.10.2015 14:00 11,0 C 83 % 1019,8 hPa 0,0 l/m 0,3 km/h N 8,2 C 11,0 C 4,0 km/h
29.10.2015 15:00 10,8 C 83 % 1020,3 hPa 0,0 l/m 0,1 km/h N 8,0 C 10,8 C 2,8 km/h
29.10.2015 16:00 10,4 C 83 % 1020,9 hPa 0,0 l/m 0,1 km/h N 7,7 C 10,4 C 1,2 km/h
29.10.2015 17:00 10,2 C 83 % 1021,6 hPa 0,0 l/m 0,1 km/h N 7,5 C 10,2 C 2,4 km/h
29.10.2015 18:00 10,1 C 83 % 1022,2 hPa 0,0 l/m 0,0 km/h N 7,3 C 10,1 C 1,2 km/h
29.10.2015 19:00 10,0 C 83 % 1022,7 hPa 0,0 l/m 0,0 km/h N 7,2 C 10,0 C 0,0 km/h
29.10.2015 20:00 9,5 C 83 % 1023,3 hPa 0,0 l/m 0,0 km/h N 6,8 C 9,5 C 0,0 km/h
29.10.2015 21:00 8,3 C 84 % 1023,9 hPa 0,0 l/m 0,0 km/h N 5,7 C 8,3 C 0,0 km/h
29.10.2015 22:00 7,9 C 83 % 1024,1 hPa 0,0 l/m 0,0 km/h N 5,3 C 7,9 C 0,8 km/h
29.10.2015 23:00 7,3 C 83 % 1024,4 hPa 0,0 l/m 0,0 km/h N 4,7 C 7,3 C 0,0 km/h
30.10.2015 00:00 6,8 C 83 % 1024,8 hPa 0,0 l/m 0,0 km/h N 4,1 C 6,8 C 0,0 km/h
30.10.2015 01:00 6,2 C 83 % 1025,4 hPa 0,0 l/m 0,0 km/h N 3,5 C 6,2 C 0,0 km/h
30.10.2015 02:00 6,4 C 83 % 1025,8 hPa 0,0 l/m 0,0 km/h N 3,7 C 6,4 C 0,0 km/h
30.10.2015 03:00 7,2 C 82 % 1026,3 hPa 0,0 l/m 0,0 km/h N 4,3 C 7,2 C 0,0 km/h
30.10.2015 04:00 7,4 C 82 % 1026,4 hPa 0,0 l/m 0,0 km/h N 4,5 C 7,4 C 0,0 km/h
30.10.2015 05:00 7,6 C 82 % 1026,7 hPa 0,0 l/m 0,0 km/h N 4,7 C 7,6 C 0,0 km/h
30.10.2015 06:00 7,7 C 81 % 1027,1 hPa 0,0 l/m 0,0 km/h N 4,7 C 7,7 C 0,0 km/h
30.10.2015 07:00 7,7 C 81 % 1027,4 hPa 0,0 l/m 0,0 km/h N 4,7 C 7,7 C 0,0 km/h
30.10.2015 08:00 8,8 C 81 % 1028,0 hPa 0,0 l/m 0,0 km/h N 5,7 C 8,8 C 0,0 km/h
30.10.2015 09:00 9,7 C 81 % 1028,3 hPa 0,0 l/m 0,0 km/h N 6,5 C 9,7 C 0,0 km/h
30.10.2015 10:00 10,3 C 81 % 1028,5 hPa 0,0 l/m 0,4 km/h N 7,2 C 10,3 C 4,8 km/h
30.10.2015 11:00 11,3 C 83 % 1028,7 hPa 0,0 l/m 1,0 km/h N 8,5 C 11,3 C 7,2 km/h
30.10.2015 12:00 12,2 C 80 % 1028,5 hPa 0,0 l/m 1,0 km/h N 8,8 C 12,2 C 7,2 km/h
30.10.2015 13:00 12,8 C 79 % 1028,1 hPa 0,0 l/m 0,3 km/h N 9,2 C 12,8 C 5,2 km/h
30.10.2015 14:00 13,0 C 79 % 1028,1 hPa 0,0 l/m 0,2 km/h N 9,4 C 13,0 C 4,4 km/h
30.10.2015 15:00 13,3 C 78 % 1028,2 hPa 0,0 l/m 0,1 km/h N 9,4 C 13,3 C 1,6 km/h
30.10.2015 16:00 12,9 C 77 % 1028,6 hPa 0,0 l/m 0,0 km/h N 8,9 C 12,9 C 0,0 km/h
30.10.2015 17:00 10,9 C 78 % 1029,3 hPa 0,0 l/m 0,0 km/h N 7,3 C 10,9 C 0,4 km/h
30.10.2015 18:00 9,6 C 82 % 1029,7 hPa 0,0 l/m 0,0 km/h N 6,7 C 9,6 C 0,8 km/h
30.10.2015 19:00 8,3 C 83 % 1030,2 hPa 0,0 l/m 0,0 km/h N 5,5 C 8,3 C 0,0 km/h
30.10.2015 20:00 7,0 C 83 % 1030,8 hPa 0,0 l/m 0,0 km/h N 4,3 C 7,0 C 0,0 km/h
30.10.2015 21:00 5,8 C 84 % 1031,4 hPa 0,0 l/m 0,0 km/h N 3,3 C 5,8 C 0,0 km/h
30.10.2015 22:00 4,9 C 84 % 1031,6 hPa 0,0 l/m 0,0 km/h N 2,5 C 4,9 C 0,0 km/h
30.10.2015 23:00 4,2 C 84 % 1031,7 hPa 0,0 l/m 0,0 km/h N 1,7 C 4,2 C 0,0 km/h
31.10.2015 00:00 3,5 C 84 % 1031,8 hPa 0,0 l/m 0,0 km/h N 1,1 C 3,5 C 0,0 km/h
31.10.2015 01:00 2,9 C 84 % 1032,1 hPa 0,0 l/m 0,0 km/h N 0,5 C 2,9 C 0,0 km/h
31.10.2015 02:00 2,3 C 84 % 1032,1 hPa 0,0 l/m 0,0 km/h N -0,2 C 2,3 C 0,0 km/h
31.10.2015 03:00 2,0 C 84 % 1032,2 hPa 0,0 l/m 0,0 km/h N -0,5 C 2,0 C 0,0 km/h
31.10.2015 04:00 3,4 C 83 % 1032,4 hPa 0,0 l/m 0,0 km/h N 0,7 C 3,4 C 0,0 km/h
31.10.2015 05:00 4,7 C 82 % 1032,7 hPa 0,0 l/m 0,0 km/h N 1,8 C 4,7 C 0,0 km/h
31.10.2015 06:00 4,8 C 82 % 1033,3 hPa 0,0 l/m 0,0 km/h N 2,0 C 4,8 C 0,0 km/h
31.10.2015 07:00 4,8 C 82 % 1033,9 hPa 0,0 l/m 0,0 km/h N 2,0 C 4,8 C 0,0 km/h
31.10.2015 08:00 5,8 C 81 % 1034,8 hPa 0,0 l/m 0,1 km/h N 2,8 C 5,8 C 2,8 km/h
31.10.2015 09:00 7,6 C 81 % 1035,0 hPa 0,0 l/m 0,7 km/h N 4,6 C 7,6 C 4,8 km/h
31.10.2015 10:00 9,4 C 82 % 1035,4 hPa 0,0 l/m 0,5 km/h N 6,5 C 9,4 C 5,6 km/h
31.10.2015 11:00 12,4 C 79 % 1035,0 hPa 0,0 l/m 1,4 km/h N 8,7 C 12,4 C 7,6 km/h
31.10.2015 12:00 15,1 C 64 % 1034,6 hPa 0,0 l/m 1,8 km/h N 8,3 C 15,1 C 12,1 km/h
31.10.2015 13:00 14,8 C 64 % 1034,4 hPa 0,0 l/m 3,3 km/h N 8,1 C 14,8 C 14,1 km/h
31.10.2015 14:00 14,6 C 65 % 1034,4 hPa 0,0 l/m 3,6 km/h N 8,1 C 14,6 C 14,5 km/h
31.10.2015 15:00 13,9 C 66 % 1034,6 hPa 0,0 l/m 2,3 km/h N 7,6 C 13,9 C 12,5 km/h
31.10.2015 16:00 12,5 C 70 % 1034,9 hPa 0,0 l/m 0,5 km/h N 7,1 C 12,5 C 7,2 km/h
31.10.2015 17:00 11,2 C 72 % 1035,8 hPa 0,0 l/m 0,5 km/h N 6,3 C 11,2 C 6,0 km/h
31.10.2015 18:00 10,2 C 76 % 1036,3 hPa 0,0 l/m 0,3 km/h N 6,1 C 10,2 C 5,2 km/h
31.10.2015 19:00 9,7 C 77 % 1036,8 hPa 0,0 l/m 0,5 km/h N 5,9 C 9,7 C 4,8 km/h
31.10.2015 20:00 8,5 C 80 % 1037,1 hPa 0,0 l/m 0,2 km/h N 5,1 C 8,5 C 2,8 km/h
31.10.2015 21:00 8,1 C 81 % 1037,5 hPa 0,0 l/m 0,5 km/h N 5,1 C 8,1 C 5,2 km/h
31.10.2015 22:00 8,4 C 81 % 1037,6 hPa 0,0 l/m 1,7 km/h N 5,3 C 8,4 C 8,1 km/h
31.10.2015 23:00 8,9 C 79 % 1037,4 hPa 0,0 l/m 1,0 km/h N 5,4 C 8,9 C 6,8 km/h
01.11.2015 00:00 8,1 C 80 % 1037,4 hPa 0,0 l/m 0,6 km/h N 4,8 C 8,1 C 6,4 km/h
01.11.2015 01:00 7,8 C 77 % 1037,5 hPa 0,0 l/m 1,1 km/h N 4,0 C 7,8 C 8,0 km/h
01.11.2015 02:00 8,1 C 63 % 1037,0 hPa 0,0 l/m 2,9 km/h N 1,5 C 8,1 C 12,5 km/h
01.11.2015 03:00 7,8 C 60 % 1036,7 hPa 0,0 l/m 3,0 km/h N 0,5 C 7,8 C 12,1 km/h
01.11.2015 04:00 7,9 C 52 % 1037,1 hPa 0,0 l/m 3,7 km/h N -1,2 C 7,9 C 13,7 km/h
01.11.2015 05:00 7,3 C 48 % 1037,4 hPa 0,0 l/m 1,8 km/h N -3,1 C 7,3 C 9,3 km/h
01.11.2015 06:00 5,8 C 53 % 1037,8 hPa 0,0 l/m 0,0 km/h N -3,0 C 5,8 C 1,2 km/h
01.11.2015 07:00 4,3 C 61 % 1038,4 hPa 0,0 l/m 0,0 km/h N -2,7 C 4,3 C 0,4 km/h
01.11.2015 08:00 6,5 C 58 % 1038,8 hPa 0,0 l/m 2,1 km/h N -1,2 C 6,5 C 8,1 km/h
01.11.2015 09:00 11,2 C 46 % 1038,5 hPa 0,0 l/m 4,3 km/h N 0,1 C 11,2 C 13,7 km/h
01.11.2015 10:00 13,0 C 40 % 1038,1 hPa 0,0 l/m 5,9 km/h N -0,2 C 12,9 C 21,3 km/h
01.11.2015 11:00 13,9 C 37 % 1037,8 hPa 0,0 l/m 6,3 km/h N -0,7 C 13,9 C 16,1 km/h
01.11.2015 12:00 14,3 C 38 % 1037,3 hPa 0,0 l/m 7,1 km/h N 0,2 C 13,9 C 18,5 km/h
01.11.2015 13:00 14,3 C 40 % 1036,8 hPa 0,0 l/m 6,5 km/h N 0,8 C 14,1 C 20,9 km/h
01.11.2015 14:00 14,2 C 40 % 1036,1 hPa 0,0 l/m 5,5 km/h N 0,8 C 14,1 C 18,1 km/h
01.11.2015 15:00 12,8 C 44 % 1036,0 hPa 0,0 l/m 2,2 km/h N 0,9 C 12,8 C 10,1 km/h
01.11.2015 16:00 10,7 C 51 % 1036,1 hPa 0,0 l/m 0,4 km/h N 1,0 C 10,7 C 6,4 km/h
01.11.2015 17:00 8,8 C 57 % 1035,9 hPa 0,0 l/m 0,0 km/h N 0,8 C 8,8 C 1,2 km/h
01.11.2015 18:00 6,7 C 65 % 1035,8 hPa 0,0 l/m 0,0 km/h N 0,6 C 6,7 C 1,2 km/h
01.11.2015 19:00 5,5 C 69 % 1035,9 hPa 0,0 l/m 0,0 km/h N 0,2 C 5,5 C 0,0 km/h
01.11.2015 20:00 4,8 C 73 % 1035,3 hPa 0,0 l/m 0,2 km/h N 0,4 C 4,8 C 2,8 km/h
01.11.2015 21:00 5,6 C 69 % 1035,1 hPa 0,0 l/m 0,4 km/h N 0,3 C 5,6 C 4,0 km/h
01.11.2015 22:00 4,0 C 71 % 1035,1 hPa 0,0 l/m 0,0 km/h N -0,9 C 4,0 C 0,0 km/h
01.11.2015 23:00 1,8 C 78 % 1035,3 hPa 0,0 l/m 0,0 km/h N -1,6 C 1,8 C 0,0 km/h
Min-Datum _ 01.11.15 01.11.15 29.10.15 - 26.10.15 - 01.11.15 01.11.15 26.10.15
_ Min-Zeit 23:45 11:16 00:45 - 00:00 - 05:45 23:45 00:00
Minimum _ 1,3 C 36 % 1013,7 hPa - 0,0 km/h - -3,2 C 1,3 C 0,0 km/h
Max-Datum _ 31.10.15 29.10.15 01.11.15 26.10.15 27.10.15 - 26.10.15 31.10.15 01.11.15
_ Max-Zeit 12:45 20:45 07:45 00:00 13:30 - 11:45 12:45 10:30
Maximum _ 15,6 C 84 % 1038,9 hPa 0,0 l/m 8,8 km/h
N
- 10,0 C 15,6 C 27,4 km/h
N
Durchschnitt _ 9,5 C 77 % 1025,6 hPa #0,0 l/m 1,4 km/h N 5,5 C 9,5 C 6,5 km/h